Time;durP1;ratioP1;P1;durP2;ratioP2;P2;SDS_P1;SDS_P2;PMS_P1;PMS_P2;Temp;Humidity;BMP_temperature;BMP_pressure;BME280_temperature;BME280_humidity;BME280_pressure;Samples;Min_cycle;Max_cycle;Signal;HPM_P1;HPM_P2
2021/07/12 00:04:06;;;;;;;5.43;5.03;;;;;;;19.43;71.78;99850.99;256272;1106;115808;-69
2021/07/12 00:09:13;;;;;;;7.80;5.68;;;;;;;19.24;71.13;99850.97;255645;1104;134837;-69
2021/07/12 00:14:18;;;;;;;6.43;5.10;;;;;;;19.21;71.53;99853.45;256290;1100;115083;-69
2021/07/12 00:19:23;;;;;;;5.75;5.23;;;;;;;19.03;71.55;99850.38;255043;1105;115119;-68
2021/07/12 00:24:28;;;;;;;6.43;5.33;;;;;;;18.90;71.39;99834.08;255400;1104;115747;-68
2021/07/12 00:29:33;;;;;;;5.78;5.25;;;;;;;18.82;71.81;99824.70;255386;1099;115120;-68
2021/07/12 00:34:39;;;;;;;7.33;5.98;;;;;;;18.63;71.82;99829.23;255269;1104;115364;-70
2021/07/12 00:39:43;;;;;;;6.43;5.83;;;;;;;18.60;72.00;99829.80;255056;1104;115431;-67
2021/07/12 00:44:48;;;;;;;7.00;6.08;;;;;;;18.64;72.36;99844.34;254331;1104;114933;-69
2021/07/12 00:49:53;;;;;;;6.90;5.45;;;;;;;18.60;72.11;99854.91;254018;1106;115368;-68
2021/07/12 00:54:58;;;;;;;6.45;5.78;;;;;;;18.61;72.58;99847.61;254317;1104;115011;-69
2021/07/12 01:00:04;;;;;;;10.53;6.70;;;;;;;18.59;72.41;99838.95;255013;1104;114982;-69
2021/07/12 01:05:13;;;;;;;5.80;5.30;;;;;;;18.64;73.06;99822.74;254400;1106;115793;-69
2021/07/12 01:10:19;;;;;;;6.90;6.10;;;;;;;18.56;72.62;99818.73;255369;1100;114876;-69
2021/07/12 01:15:28;;;;;;;8.78;7.65;;;;;;;18.43;72.96;99817.49;254309;1104;115576;-69
2021/07/12 01:20:46;;;;;;;9.20;6.18;;;;;;;18.36;72.98;99817.02;254746;1104;114623;-69
2021/07/12 01:26:03;;;;;;;7.08;6.43;;;;;;;18.39;73.74;99810.24;254470;1100;115119;-68
2021/07/12 01:31:36;;;;;;;6.35;5.83;;;;;;;18.45;73.65;99804.52;254863;1100;115267;-69
2021/07/12 01:36:41;;;;;;;8.10;6.57;;;;;;;18.48;73.40;99789.65;254625;1105;115586;-69
2021/07/12 01:42:00;;;;;;;7.45;6.78;;;;;;;18.45;73.50;99791.02;255512;1104;115831;-69
2021/07/12 01:47:12;;;;;;;8.20;7.53;;;;;;;18.37;73.53;99775.44;256897;1104;117063;-70
2021/07/12 01:52:43;;;;;;;7.93;6.97;;;;;;;18.39;73.55;99788.66;256153;1104;115809;-69
2021/07/12 01:57:57;;;;;;;18.10;7.07;;;;;;;18.36;73.50;99795.42;256224;1106;114847;-70
2021/07/12 02:03:03;;;;;;;14.57;6.67;;;;;;;18.39;73.51;99792.16;256859;1104;115306;-69
2021/07/12 02:08:12;;;;;;;7.60;6.90;;;;;;;18.38;73.45;99806.73;256654;1104;116048;-68
2021/07/12 02:13:18;;;;;;;6.77;6.13;;;;;;;18.41;73.37;99806.17;255852;1104;115195;-69
2021/07/12 02:18:27;;;;;;;9.20;7.08;;;;;;;18.35;73.50;99799.20;255773;1104;116645;-68
2021/07/12 02:23:35;;;;;;;6.35;5.80;;;;;;;18.22;72.90;99789.09;256153;1104;116686;-68
2021/07/12 02:28:47;;;;;;;6.40;5.90;;;;;;;18.10;73.41;99780.55;255255;1104;116102;-67
2021/07/12 02:33:53;;;;;;;6.67;6.13;;;;;;;18.10;73.74;99770.56;255553;1104;115933;-68
2021/07/12 02:39:00;;;;;;;6.55;5.95;;;;;;;18.07;73.83;99759.53;255849;1099;115686;-68
2021/07/12 02:44:07;;;;;;;8.45;6.25;;;;;;;18.15;74.30;99757.04;254833;1104;116111;-68
2021/07/12 02:49:14;;;;;;;8.58;6.03;;;;;;;18.21;74.11;99752.41;254831;1104;118237;-68
2021/07/12 02:54:28;;;;;;;7.85;7.10;;;;;;;18.22;74.36;99745.12;254573;1104;116763;-68
2021/07/12 02:59:32;;;;;;;7.18;6.48;;;;;;;18.21;74.16;99735.41;254614;1104;116854;-69
2021/07/12 03:04:38;;;;;;;9.78;6.70;;;;;;;18.29;74.56;99737.50;254243;1107;117026;-68
2021/07/12 03:09:46;;;;;;;6.05;5.55;;;;;;;18.38;74.35;99741.97;255362;1104;117479;-69
2021/07/12 03:15:03;;;;;;;10.10;6.95;;;;;;;18.49;74.27;99746.17;254731;1104;116189;-68
2021/07/12 03:20:12;;;;;;;6.28;5.68;;;;;;;18.48;74.07;99749.97;255450;1104;117319;-68
2021/07/12 03:25:28;;;;;;;6.15;5.65;;;;;;;18.50;74.57;99763.17;255024;1104;115934;-68
2021/07/12 03:30:37;;;;;;;14.03;6.33;;;;;;;18.58;74.39;99753.66;256357;1104;115593;-67
2021/07/12 03:35:44;;;;;;;10.00;6.27;;;;;;;18.70;74.41;99751.38;255038;1099;116793;-67
2021/07/12 03:40:51;;;;;;;7.25;6.65;;;;;;;18.83;74.33;99756.09;255888;1105;117393;-68
2021/07/12 03:45:58;;;;;;;8.93;6.60;;;;;;;18.93;74.68;99772.19;255319;1104;115307;-67
2021/07/12 03:51:05;;;;;;;6.45;5.95;;;;;;;19.14;74.78;99762.72;256088;1104;116790;-68
2021/07/12 03:56:10;;;;;;;6.73;5.90;;;;;;;19.35;74.74;99759.73;255687;1104;116624;-68
2021/07/12 04:01:22;;;;;;;7.10;6.50;;;;;;;19.56;74.42;99755.69;257097;1104;115751;-68
2021/07/12 04:06:30;;;;;;;7.13;6.57;;;;;;;19.76;74.39;99763.48;256432;1104;116520;-68
2021/07/12 04:11:36;;;;;;;6.97;6.37;;;;;;;19.99;73.75;99763.65;256573;1104;116716;-68
2021/07/12 04:16:41;;;;;;;8.17;5.97;;;;;;;20.22;73.71;99762.70;257139;1104;115119;-68
2021/07/12 04:21:46;;;;;;;7.50;6.30;;;;;;;20.42;73.72;99759.67;256892;1104;116713;-69
2021/07/12 04:26:52;;;;;;;12.28;7.80;;;;;;;21.27;73.19;99760.16;254323;1104;115377;-68
2021/07/12 04:32:00;;;;;;;7.20;6.15;;;;;;;23.09;71.30;99763.66;255295;1104;116109;-69
2021/07/12 04:37:06;;;;;;;9.57;6.57;;;;;;;23.58;70.44;99764.38;253943;1104;116484;-68
2021/07/12 04:42:12;;;;;;;7.85;6.20;;;;;;;24.77;67.95;99774.53;254900;1104;114937;-69
2021/07/12 04:47:17;;;;;;;7.27;6.67;;;;;;;26.00;66.43;99772.25;254464;1100;115622;-69
2021/07/12 04:52:23;;;;;;;7.30;6.70;;;;;;;25.97;65.75;99774.89;255270;1105;115168;-70
2021/07/12 04:57:27;;;;;;;7.07;6.37;;;;;;;26.65;64.21;99778.00;255583;1104;115210;-70
2021/07/12 05:02:32;;;;;;;6.73;6.13;;;;;;;26.25;63.52;99775.88;254490;1104;115467;-69
2021/07/12 05:07:39;;;;;;;6.40;5.88;;;;;;;26.05;63.25;99779.44;254277;1104;115332;-70
2021/07/12 05:12:45;;;;;;;7.45;6.85;;;;;;;25.48;63.63;99775.41;254033;1104;115754;-70
2021/07/12 05:17:49;;;;;;;7.60;6.75;;;;;;;24.96;63.43;99774.97;254313;1104;115289;-69
2021/07/12 05:22:54;;;;;;;6.97;6.40;;;;;;;24.78;63.64;99771.48;254969;1104;116211;-71
2021/07/12 05:27:59;;;;;;;8.63;7.60;;;;;;;26.48;61.72;99774.34;253911;1100;116886;-71
2021/07/12 05:33:06;;;;;;;7.18;6.63;;;;;;;29.20;59.72;99772.63;254407;1104;116665;-71
2021/07/12 05:38:11;;;;;;;6.10;5.60;;;;;;;30.62;57.74;99770.75;254945;1104;116409;-71
2021/07/12 05:43:16;;;;;;;8.60;5.95;;;;;;;29.92;56.83;99768.28;254856;1104;116229;-70
2021/07/12 05:48:21;;;;;;;6.03;5.47;;;;;;;29.75;56.34;99764.02;254925;1104;115500;-70
2021/07/12 05:53:27;;;;;;;6.75;6.03;;;;;;;28.86;55.95;99769.50;255092;1104;118823;-71
2021/07/12 05:58:34;;;;;;;6.70;6.20;;;;;;;29.58;55.80;99758.18;254239;1104;115343;-70
2021/07/12 06:03:38;;;;;;;6.45;5.83;;;;;;;31.03;54.18;99758.02;254518;1104;115386;-71
2021/07/12 06:08:43;;;;;;;7.35;5.85;;;;;;;32.45;52.72;99753.44;255615;1106;117592;-72
2021/07/12 06:13:53;;;;;;;6.40;5.80;;;;;;;32.54;52.00;99761.40;256652;1104;114775;-69
2021/07/12 06:18:59;;;;;;;6.10;5.60;;;;;;;31.77;51.20;99758.27;256989;1104;115774;-71
2021/07/12 06:24:04;;;;;;;7.88;5.78;;;;;;;31.27;51.48;99753.27;255266;1104;115828;-71
2021/07/12 06:29:10;;;;;;;6.88;6.15;;;;;;;30.66;51.77;99768.86;254637;1104;116332;-71
2021/07/12 06:34:15;;;;;;;6.28;5.85;;;;;;;30.57;52.58;99751.83;254198;1104;116913;-70
2021/07/12 06:39:20;;;;;;;8.30;7.60;;;;;;;31.98;51.54;99754.16;255630;1104;136080;-71
2021/07/12 06:44:25;;;;;;;7.85;7.03;;;;;;;32.65;50.44;99757.56;255390;1104;115211;-71
2021/07/12 06:49:33;;;;;;;8.50;6.23;;;;;;;33.05;49.70;99753.11;254310;1104;115677;-70
2021/07/12 06:54:38;;;;;;;7.10;6.48;;;;;;;33.73;47.88;99752.28;255012;1104;116996;-71
2021/07/12 06:59:43;;;;;;;6.05;5.53;;;;;;;34.01;47.43;99748.03;254285;1100;116630;-71
2021/07/12 07:04:47;;;;;;;6.87;5.77;;;;;;;33.11;46.87;99748.81;254609;1104;117296;-68
2021/07/12 07:09:51;;;;;;;7.50;6.90;;;;;;;32.17;47.50;99745.67;254140;1099;117649;-69
2021/07/12 07:14:56;;;;;;;6.95;6.35;;;;;;;31.35;48.64;99752.20;254265;1104;117509;-69
2021/07/12 07:20:01;;;;;;;8.87;7.47;;;;;;;30.64;49.58;99754.67;254184;1104;114957;-69
2021/07/12 07:25:06;;;;;;;9.53;7.53;;;;;;;30.70;50.41;99755.16;253954;1104;117331;-70
2021/07/12 07:30:16;;;;;;;7.98;7.03;;;;;;;30.94;50.01;99759.45;255216;1104;115310;-69
2021/07/12 07:35:20;;;;;;;8.40;7.37;;;;;;;30.47;50.45;99769.70;255171;1104;115162;-70
2021/07/12 07:40:24;;;;;;;9.07;8.20;;;;;;;30.48;51.32;99765.80;255848;1104;115451;-69
2021/07/12 07:45:29;;;;;;;9.23;8.35;;;;;;;30.22;51.53;99756.69;254224;1104;116629;-70
2021/07/12 07:50:36;;;;;;;10.80;8.75;;;;;;;30.20;52.61;99754.30;255393;1104;115880;-70
2021/07/12 07:55:42;;;;;;;11.55;10.55;;;;;;;30.24;52.43;99754.37;255528;1104;115557;-70
2021/07/12 08:00:46;;;;;;;;;;;;;;;30.33;52.32;99752.16;256890;1104;115949;-69
2021/07/12 08:05:51;;;;;;;11.55;10.38;;;;;;;29.96;52.39;99754.62;257865;1104;102175;-71
2021/07/12 08:10:56;;;;;;;13.03;11.65;;;;;;;29.59;52.90;99760.56;257095;1104;115788;-70
2021/07/12 08:16:03;;;;;;;14.30;13.15;;;;;;;29.34;53.26;99761.97;257082;1104;115467;-70
2021/07/12 08:21:11;;;;;;;14.03;12.65;;;;;;;29.93;53.72;99755.34;255384;1106;116418;-70
2021/07/12 08:26:16;;;;;;;13.30;12.13;;;;;;;30.39;53.27;99756.19;255899;1104;116051;-70
2021/07/12 08:31:24;;;;;;;16.83;12.50;;;;;;;30.60;52.71;99750.27;255035;1104;117079;-70
2021/07/12 08:36:29;;;;;;;14.85;13.20;;;;;;;30.47;52.05;99747.70;255389;1100;115374;-69
2021/07/12 08:41:34;;;;;;;12.55;11.28;;;;;;;30.27;53.03;99748.14;255009;1104;116329;-70
2021/07/12 08:46:38;;;;;;;15.53;14.08;;;;;;;30.43;52.54;99746.84;254440;1104;115140;-68
2021/07/12 08:51:43;;;;;;;13.00;11.88;;;;;;;29.88;52.89;99759.17;255348;1104;116927;-70
2021/07/12 08:56:48;;;;;;;14.95;13.80;;;;;;;29.70;52.66;99760.77;254014;1106;116721;-70
2021/07/12 09:02:05;;;;;;;13.85;12.63;;;;;;;29.36;52.28;99754.14;254299;1105;115826;-69
2021/07/12 09:07:28;;;;;;;12.98;11.38;;;;;;;29.98;53.76;99755.02;254492;1104;115609;-70
2021/07/12 09:12:50;;;;;;;14.50;13.30;;;;;;;29.99;52.83;99748.39;254862;1104;117102;-69
2021/07/12 09:17:55;;;;;;;14.50;13.20;;;;;;;29.95;52.32;99750.28;254595;1105;116262;-69
2021/07/12 09:23:21;;;;;;;16.25;14.73;;;;;;;30.11;53.08;99745.48;253680;1106;116093;-70
2021/07/12 09:28:25;;;;;;;14.73;13.53;;;;;;;30.29;52.27;99748.54;254199;1104;115833;-70
2021/07/12 09:33:30;;;;;;;15.73;14.30;;;;;;;30.88;52.30;99739.70;254575;1105;115900;-70
2021/07/12 09:38:35;;;;;;;15.18;13.80;;;;;;;30.86;51.60;99738.52;255322;1104;115919;-70
2021/07/12 09:43:41;;;;;;;17.23;15.63;;;;;;;30.98;50.68;99738.28;254373;1104;115535;-69
2021/07/12 09:49:08;;;;;;;16.57;14.43;;;;;;;30.56;50.46;99735.66;254907;1104;117355;-70
2021/07/12 09:54:23;;;;;;;17.13;15.27;;;;;;;30.65;50.72;99723.25;255067;1104;118525;-70
2021/07/12 09:59:28;;;;;;;15.03;13.83;;;;;;;30.52;50.91;99721.84;257140;1104;115503;-70
2021/07/12 10:04:33;;;;;;;14.68;13.63;;;;;;;30.21;50.58;99722.90;256534;1104;114967;-70
2021/07/12 10:09:39;;;;;;;13.50;12.40;;;;;;;30.43;50.25;99710.30;256216;1106;114977;-69
2021/07/12 10:14:44;;;;;;;13.80;12.68;;;;;;;30.98;49.71;99703.28;257162;1104;115641;-70
2021/07/12 10:19:49;;;;;;;13.65;12.55;;;;;;;31.20;50.18;99696.13;256061;1106;115275;-70
2021/07/12 10:25:06;;;;;;;12.25;11.28;;;;;;;31.65;49.19;99694.30;256381;1104;116124;-69
2021/07/12 10:30:21;;;;;;;13.93;12.77;;;;;;;31.88;49.34;99694.97;256046;1104;118259;-70
2021/07/12 10:35:39;;;;;;;18.40;10.37;;;;;;;32.29;48.84;99701.30;255406;1104;114991;-71
2021/07/12 10:40:57;;;;;;;9.60;8.85;;;;;;;32.07;47.36;99682.95;255595;1104;115468;-70
2021/07/12 10:46:03;;;;;;;11.80;10.75;;;;;;;32.09;47.83;99686.13;255784;1104;116490;-70
2021/07/12 10:51:20;;;;;;;10.15;9.35;;;;;;;32.19;47.76;99692.89;256326;1106;115492;-70
2021/07/12 10:56:54;;;;;;;12.65;11.45;;;;;;;31.73;46.79;99696.01;257287;1104;115408;-70
2021/07/12 11:02:02;;;;;;;11.30;10.28;;;;;;;31.59;47.24;99685.58;255002;1100;116658;-69
2021/07/12 11:07:11;;;;;;;13.85;9.30;;;;;;;31.74;47.76;99681.85;254855;1105;116446;-70
2021/07/12 11:12:40;;;;;;;10.40;9.70;;;;;;;31.67;47.63;99694.75;254797;1104;116436;-69
2021/07/12 11:18:06;;;;;;;9.28;8.50;;;;;;;31.04;47.33;99682.53;254342;1104;116062;-70
2021/07/12 11:23:37;;;;;;;8.45;7.75;;;;;;;30.49;48.21;99684.86;254615;1100;115037;-69
2021/07/12 11:28:44;;;;;;;12.23;11.03;;;;;;;29.86;48.87;99692.00;254050;1104;115745;-69
2021/07/12 11:33:57;;;;;;;10.70;9.80;;;;;;;29.40;49.59;99683.62;255161;1104;119849;-69
2021/07/12 11:39:04;;;;;;;10.23;9.23;;;;;;;29.08;49.96;99653.56;254448;1104;116478;-69
2021/07/12 11:44:15;;;;;;;7.40;6.90;;;;;;;28.97;50.08;99625.12;254519;1104;116194;-69
2021/07/12 11:49:25;;;;;;;6.90;6.40;;;;;;;28.85;49.93;99597.80;254495;1104;116454;-70
2021/07/12 11:54:39;;;;;;;10.10;7.58;;;;;;;29.14;49.72;99596.44;254311;1104;115928;-69
2021/07/12 11:59:46;;;;;;;8.50;7.78;;;;;;;29.16;49.54;99594.13;254073;1104;116149;-70
2021/07/12 12:04:59;;;;;;;9.15;8.38;;;;;;;29.22;49.00;99606.41;255282;1104;116062;-69
2021/07/12 12:10:31;;;;;;;8.33;7.73;;;;;;;29.48;49.33;99614.78;255518;1104;117147;-70
2021/07/12 12:15:41;;;;;;;9.68;6.98;;;;;;;29.74;48.83;99622.30;253969;1104;115983;-71
2021/07/12 12:20:52;;;;;;;8.10;6.43;;;;;;;29.96;48.27;99650.97;257050;1104;115571;-70
2021/07/12 12:26:08;;;;;;;6.43;5.93;;;;;;;30.05;48.03;99651.53;256175;1106;119806;-70
2021/07/12 12:31:16;;;;;;;7.37;6.77;;;;;;;30.12;47.99;99648.11;256514;1104;115700;-70
2021/07/12 12:36:24;;;;;;;7.23;6.73;;;;;;;30.32;46.90;99644.11;257240;1104;116010;-70
2021/07/12 12:41:38;;;;;;;7.00;5.93;;;;;;;30.38;47.10;99639.09;255747;1104;116066;-70
2021/07/12 12:46:54;;;;;;;6.57;6.07;;;;;;;30.39;46.53;99626.93;256536;1104;116795;-71
2021/07/12 12:52:15;;;;;;;5.95;5.35;;;;;;;30.31;47.50;99626.02;255366;1104;115338;-70
2021/07/12 12:57:28;;;;;;;8.38;6.03;;;;;;;30.00;47.11;99631.80;254213;1104;115181;-69
2021/07/12 13:02:38;;;;;;;7.63;6.90;;;;;;;29.53;47.00;99643.11;254314;1104;115096;-69
2021/07/12 13:07:46;;;;;;;7.78;7.08;;;;;;;29.08;47.88;99633.55;254741;1104;115459;-70
2021/07/12 13:12:55;;;;;;;7.73;7.00;;;;;;;28.66;48.52;99617.76;254625;1100;116352;-69
2021/07/12 13:18:06;;;;;;;8.40;7.17;;;;;;;28.21;49.62;99612.80;254415;1104;116219;-69
2021/07/12 13:23:11;;;;;;;9.38;8.53;;;;;;;27.87;50.01;99602.52;254507;1104;116000;-70
2021/07/12 13:28:16;;;;;;;6.80;6.36;;;;;;;27.62;50.52;99608.16;254300;1104;116859;-70
2021/07/12 13:33:23;;;;;;;9.73;8.33;;;;;;;27.61;51.65;99600.30;254090;1104;119173;-70
2021/07/12 13:38:29;;;;;;;8.25;7.65;;;;;;;28.04;51.68;99593.96;254028;1104;116242;-70
2021/07/12 13:43:34;;;;;;;;;;;;;;;28.56;51.61;99595.58;254326;1104;115520;-69
2021/07/12 13:48:40;;;;;;;8.90;8.10;;;;;;;28.87;51.40;99595.50;254977;1104;103368;-70
2021/07/12 13:53:45;;;;;;;8.78;7.88;;;;;;;28.97;51.21;99600.42;254177;1104;116629;-70
2021/07/12 13:58:50;;;;;;;8.13;7.43;;;;;;;29.04;51.14;99595.09;254078;1104;116623;-71
2021/07/12 14:03:54;;;;;;;8.38;7.78;;;;;;;28.94;50.93;99590.16;254251;1104;116189;-69
2021/07/12 14:08:59;;;;;;;8.40;7.70;;;;;;;28.71;50.06;99589.27;254261;1104;115045;-70
2021/07/12 14:14:05;;;;;;;9.05;8.15;;;;;;;28.35;50.45;99582.19;255985;1104;115296;-70
2021/07/12 14:19:12;;;;;;;8.98;8.30;;;;;;;28.41;50.99;99587.05;254081;1104;117447;-68
2021/07/12 14:24:17;;;;;;;9.70;8.80;;;;;;;28.60;51.42;99590.97;254150;1104;115540;-68
2021/07/12 14:29:22;;;;;;;9.53;8.63;;;;;;;28.72;50.87;99593.59;254383;1104;118759;-68
2021/07/12 14:34:27;;;;;;;8.30;7.70;;;;;;;28.95;50.99;99588.22;254187;1104;116845;-69
2021/07/12 14:39:33;;;;;;;10.43;9.53;;;;;;;28.86;51.04;99577.45;254091;1104;118275;-69
2021/07/12 14:44:38;;;;;;;10.15;9.23;;;;;;;28.73;51.56;99593.23;254195;1104;115607;-69
2021/07/12 14:49:43;;;;;;;10.20;9.23;;;;;;;28.45;51.21;99578.88;254010;1104;115790;-69
2021/07/12 14:54:49;;;;;;;11.35;10.35;;;;;;;28.26;51.74;99574.16;254123;1105;115392;-69
2021/07/12 14:59:53;;;;;;;10.57;9.67;;;;;;;28.23;52.03;99572.13;253988;1100;115391;-69
2021/07/12 15:04:58;;;;;;;9.68;8.90;;;;;;;28.09;51.56;99571.77;254085;1104;115441;-67
2021/07/12 15:10:03;;;;;;;10.20;9.28;;;;;;;28.06;51.88;99576.02;253997;1104;114931;-68
2021/07/12 15:15:10;;;;;;;10.38;9.35;;;;;;;27.98;51.48;99582.47;254181;1106;115743;-68
2021/07/12 15:20:17;;;;;;;10.20;9.20;;;;;;;28.14;51.71;99574.22;255546;1104;116237;-69
2021/07/12 15:25:24;;;;;;;6.73;6.20;;;;;;;28.20;51.49;99578.28;254301;1104;115377;-68
2021/07/12 15:30:29;;;;;;;8.13;7.33;;;;;;;28.26;51.00;99562.39;254674;1104;115523;-70
2021/07/12 15:35:33;;;;;;;7.08;6.48;;;;;;;28.28;50.49;99571.85;254060;1104;115064;-70
2021/07/12 15:40:39;;;;;;;7.68;6.98;;;;;;;28.33;50.31;99579.80;255052;1104;114522;-70
2021/07/12 15:45:44;;;;;;;;;;;;;;;28.22;49.86;99594.41;254005;1104;115581;-69
2021/07/12 15:50:48;;;;;;;5.73;5.33;;;;;;;27.98;49.51;99596.16;254655;1105;104238;-69
2021/07/12 15:55:54;;;;;;;6.53;5.70;;;;;;;27.80;48.83;99603.95;253981;1104;115117;-68
2021/07/12 16:00:58;;;;;;;4.58;4.23;;;;;;;27.54;48.65;99600.87;255224;1104;114971;-69
2021/07/12 16:06:02;;;;;;;8.10;5.23;;;;;;;27.24;48.55;99594.19;254746;1104;115436;-69
2021/07/12 16:11:08;;;;;;;5.40;4.83;;;;;;;27.14;48.14;99585.35;253891;1104;196292;-68
2021/07/12 16:16:13;;;;;;;20.60;10.70;;;;;;;26.87;47.86;99594.31;255220;1104;114887;-69
2021/07/12 16:21:18;;;;;;;4.85;4.35;;;;;;;26.66;48.10;99586.27;254396;1104;115720;-67
2021/07/12 16:26:23;;;;;;;3.68;3.48;;;;;;;26.47;48.13;99580.62;255411;1104;115319;-68
2021/07/12 16:31:27;;;;;;;7.63;4.15;;;;;;;26.30;48.01;99572.62;255329;1104;115128;-68
2021/07/12 16:36:32;;;;;;;3.13;2.93;;;;;;;26.15;48.67;99555.00;256551;1104;116074;-68
2021/07/12 16:41:38;;;;;;;6.63;3.98;;;;;;;26.02;48.78;99545.20;257011;1104;114667;-69
2021/07/12 16:46:42;;;;;;;4.16;3.86;;;;;;;25.96;49.38;99532.94;256383;1105;114675;-69
2021/07/12 16:51:48;;;;;;;5.55;5.05;;;;;;;25.98;49.60;99533.40;253626;1105;115926;-68
2021/07/12 16:56:53;;;;;;;;;;;;;;;25.80;50.19;99519.95;254007;1105;115774;-68
2021/07/12 17:02:01;;;;;;;5.58;4.75;;;;;;;25.56;50.59;99525.38;254421;1105;102953;-69
2021/07/12 17:07:07;;;;;;;6.70;4.55;;;;;;;25.37;51.19;99522.39;254545;1100;116030;-68
2021/07/12 17:12:13;;;;;;;5.93;5.43;;;;;;;25.18;51.84;99520.97;253901;1106;117778;-69
2021/07/12 17:17:18;;;;;;;6.70;6.10;;;;;;;25.16;52.17;99536.88;253859;1105;116907;-68
2021/07/12 17:22:22;;;;;;;;;;;;;;;25.01;52.96;99547.63;254109;1106;116817;-67
2021/07/12 17:27:27;;;;;;;6.18;5.68;;;;;;;24.85;53.12;99561.84;255002;1106;103361;-68
2021/07/12 17:32:31;;;;;;;12.53;6.90;;;;;;;24.74;54.19;99571.56;254380;1104;115776;-66
2021/07/12 17:37:39;;;;;;;10.70;6.23;;;;;;;24.69;54.12;99584.59;254881;1100;117034;-67
2021/07/12 17:42:46;;;;;;;7.03;6.35;;;;;;;24.65;54.81;99600.01;254287;1104;116449;-67
2021/07/12 17:47:51;;;;;;;7.80;7.10;;;;;;;24.53;55.01;99572.66;254325;1104;115238;-67
2021/07/12 17:52:55;;;;;;;6.55;6.00;;;;;;;24.39;55.22;99564.77;254766;1100;118479;-68
2021/07/12 17:58:00;;;;;;;6.38;5.50;;;;;;;24.23;55.25;99593.66;255487;1104;115908;-67
2021/07/12 18:03:08;;;;;;;11.05;6.40;;;;;;;23.99;55.31;99605.95;255954;1104;115443;-67
2021/07/12 18:08:14;;;;;;;13.60;6.80;;;;;;;23.87;55.91;99600.38;255244;1099;116208;-68
2021/07/12 18:13:19;;;;;;;;;;;;;;;23.80;56.16;99597.38;254808;1104;115650;-68
2021/07/12 18:18:25;;;;;;;7.93;6.45;;;;;;;23.70;56.55;99603.17;255545;1105;103046;-68
2021/07/12 18:23:30;;;;;;;6.20;5.70;;;;;;;23.61;56.65;99599.66;255980;1104;115386;-67
2021/07/12 18:28:35;;;;;;;8.94;6.50;;;;;;;23.38;57.23;99583.53;254528;1104;115448;-67
2021/07/12 18:33:40;;;;;;;9.55;5.95;;;;;;;23.21;57.79;99602.61;255249;1106;115617;-67
2021/07/12 18:38:46;;;;;;;7.40;6.80;;;;;;;23.06;58.27;99598.45;257299;1104;115522;-67
2021/07/12 18:43:51;;;;;;;7.65;6.95;;;;;;;22.89;58.61;99571.28;257046;1104;114926;-67
2021/07/12 18:48:57;;;;;;;5.65;4.85;;;;;;;22.75;59.05;99574.11;256218;1104;115551;-67
2021/07/12 18:54:02;;;;;;;11.50;6.13;;;;;;;22.59;59.51;99569.48;255202;1104;115950;-67
2021/07/12 18:59:09;;;;;;;7.03;6.05;;;;;;;22.15;59.51;99582.96;255397;1104;114869;-67
2021/07/12 19:04:15;;;;;;;14.27;6.37;;;;;;;21.97;60.23;99577.77;255094;1104;114916;-66
2021/07/12 19:09:19;;;;;;;7.00;6.28;;;;;;;21.76;60.29;99586.44;254958;1100;116030;-66
2021/07/12 19:14:25;;;;;;;5.85;5.35;;;;;;;21.47;61.38;99589.64;254328;1104;115526;-66
2021/07/12 19:19:33;;;;;;;9.38;6.05;;;;;;;21.25;61.61;99603.23;255070;1104;114773;-66
2021/07/12 19:24:38;;;;;;;8.23;6.37;;;;;;;21.16;61.73;99619.39;255714;1104;115320;-67
2021/07/12 19:29:44;;;;;;;6.83;5.38;;;;;;;21.02;62.19;99626.78;255030;1104;115306;-67
2021/07/12 19:34:50;;;;;;;9.13;6.08;;;;;;;20.91;62.40;99646.27;255043;1104;114725;-66
2021/07/12 19:39:56;;;;;;;5.98;5.48;;;;;;;20.72;62.35;99654.55;255020;1104;114784;-67
2021/07/12 19:45:04;;;;;;;6.65;5.83;;;;;;;20.37;62.22;99662.30;254899;1104;115480;-67
2021/07/12 19:50:12;;;;;;;13.70;7.28;;;;;;;20.17;63.26;99662.67;254715;1104;115551;-67
2021/07/12 19:55:23;;;;;;;7.88;6.20;;;;;;;20.04;63.72;99658.04;254520;1100;116170;-66
2021/07/12 20:00:32;;;;;;;7.33;5.95;;;;;;;19.91;63.92;99648.79;255071;1104;115485;-66
2021/07/12 20:05:40;;;;;;;8.65;7.00;;;;;;;19.72;64.20;99635.34;255034;1104;115757;-66
2021/07/12 20:10:46;;;;;;;8.45;5.88;;;;;;;19.69;64.54;99629.72;255026;1104;115207;-66
2021/07/12 20:15:53;;;;;;;6.48;5.85;;;;;;;19.56;64.62;99625.10;256245;1104;115456;-66
2021/07/12 20:20:59;;;;;;;7.70;5.68;;;;;;;19.49;65.18;99618.14;256158;1098;114702;-66
2021/07/12 20:26:08;;;;;;;10.45;5.30;;;;;;;19.39;64.86;99618.30;255492;1104;115104;-66
2021/07/12 20:31:12;;;;;;;6.63;6.03;;;;;;;19.08;64.89;99622.58;256016;1104;116092;-66
2021/07/12 20:36:18;;;;;;;11.77;6.50;;;;;;;18.77;65.27;99622.22;254842;1104;115156;-66
2021/07/12 20:41:26;;;;;;;10.10;8.33;;;;;;;18.65;65.91;99622.63;257186;1104;115593;-67
2021/07/12 20:46:30;;;;;;;14.40;7.83;;;;;;;18.65;66.32;99614.53;257153;1104;115249;-66
2021/07/12 20:51:37;;;;;;;11.25;10.15;;;;;;;18.62;66.51;99620.54;257262;1104;115027;-67
2021/07/12 20:56:43;;;;;;;28.35;16.48;;;;;;;18.64;66.56;99629.16;256065;1099;115817;-66
2021/07/12 21:01:49;;;;;;;17.88;12.03;;;;;;;18.62;66.73;99633.23;254993;1105;116593;-66
2021/07/12 21:07:01;;;;;;;10.93;7.65;;;;;;;18.51;66.52;99619.83;254940;1104;115738;-65
2021/07/12 21:12:11;;;;;;;11.33;7.85;;;;;;;18.42;66.69;99616.16;254408;1100;115416;-66
2021/07/12 21:17:15;;;;;;;14.93;7.60;;;;;;;18.27;66.71;99607.46;255058;1104;114874;-66
2021/07/12 21:22:21;;;;;;;10.90;7.80;;;;;;;18.15;67.23;99599.77;254199;1104;114637;-66
2021/07/12 21:27:27;;;;;;;10.75;6.40;;;;;;;18.21;67.26;99597.81;255614;1104;115099;-67
2021/07/12 21:32:34;;;;;;;8.00;6.88;;;;;;;18.10;67.46;99589.83;254475;1104;115771;-66
2021/07/12 21:37:38;;;;;;;7.08;6.45;;;;;;;18.17;67.90;99584.90;254533;1104;114688;-66
2021/07/12 21:42:44;;;;;;;6.08;5.48;;;;;;;18.16;67.86;99569.80;254387;1104;115747;-65
2021/07/12 21:47:49;;;;;;;6.90;6.20;;;;;;;18.14;67.84;99574.68;254914;1104;114665;-66
2021/07/12 21:52:55;;;;;;;7.20;6.43;;;;;;;18.06;68.11;99555.63;254649;1104;115435;-66
2021/07/12 21:58:00;;;;;;;10.43;6.30;;;;;;;18.07;68.33;99541.84;255231;1104;116001;-67
2021/07/12 22:03:06;;;;;;;7.23;6.63;;;;;;;18.07;68.26;99532.95;254773;1104;116206;-67
2021/07/12 22:08:11;;;;;;;8.60;6.80;;;;;;;17.94;67.93;99537.17;255337;1104;116220;-66
2021/07/12 22:13:16;;;;;;;8.93;5.48;;;;;;;17.81;68.27;99530.56;255633;1100;116573;-65
2021/07/12 22:18:21;;;;;;;13.03;6.08;;;;;;;17.76;68.73;99527.12;254322;1104;116117;-66
2021/07/12 22:23:26;;;;;;;6.45;5.58;;;;;;;17.61;68.12;99546.14;255382;1104;116785;-66
2021/07/12 22:28:32;;;;;;;6.50;5.80;;;;;;;17.47;68.54;99567.55;254448;1104;116357;-67
2021/07/12 22:33:37;;;;;;;6.25;5.65;;;;;;;17.38;68.48;99571.97;256843;1104;116225;-67
2021/07/12 22:38:45;;;;;;;8.90;6.58;;;;;;;17.33;68.83;99572.81;254907;1104;116118;-67
2021/07/12 22:43:49;;;;;;;9.78;5.30;;;;;;;17.29;69.29;99576.34;255920;1104;115329;-66
2021/07/12 22:48:54;;;;;;;6.28;5.68;;;;;;;17.24;68.83;99579.88;256204;1104;115697;-67
2021/07/12 22:54:00;;;;;;;5.83;4.90;;;;;;;17.18;69.39;99571.03;257125;1104;119341;-66
2021/07/12 22:59:05;;;;;;;;;;;;;;;17.06;69.34;99578.69;256670;1104;114850;-66
2021/07/12 23:04:10;;;;;;;7.67;6.33;;;;;;;16.91;69.73;99569.91;257890;1104;102599;-66
2021/07/12 23:09:17;;;;;;;6.68;6.08;;;;;;;16.90;70.43;99573.68;256344;1104;115106;-66
2021/07/12 23:14:23;;;;;;;9.63;6.43;;;;;;;16.87;70.27;99572.34;255526;1099;114928;-66
2021/07/12 23:19:28;;;;;;;;;;;;;;;16.93;70.60;99555.08;255137;1104;114903;-65
2021/07/12 23:24:34;;;;;;;7.78;6.43;;;;;;;17.01;70.71;99534.83;256526;1104;103185;-65
2021/07/12 23:29:40;;;;;;;8.27;5.60;;;;;;;16.97;70.85;99525.70;255152;1104;116085;-66